Artemis Leader — 3ERS4 — position and weather

sailwx.info

Track history (hours):
 
Tides and Currents Weather Stations Pressure Air Temp Water Temp Dewpoint Dewpoint Depression Visibility Wind Speed Wind Dir Waves Ship Positions

Artemis Leader

Last reported at 2017-Dec-09 20:51 UTC. Time now 2017-Dec-18 14:28 UTC.
Position N 34°42' E 140°20'.
Warning: this ship's position is 8 days out of date.

Length 200 m; draft 9.2 m.

Type: Cargo ship. MMSI: 370157000.

Date/timePositionNaut miles runAvg speedWind from/ knotsBaromVisibWave heightAir tempDewpointWater temp
2017-Dec-09 20:51N 34°42' E 140°20'2317.7
2017-Dec-09 19:34N 34°39' E 139°53'216.6
2017-Dec-09 19:28N 34°39' E 139°51'816.7
2017-Dec-09 19:00N 34°38' E 139°42'917.3
2017-Dec-09 18:29N 34°36' E 139°31'1018.2
2017-Dec-09 17:56N 34°36' E 139°19'818.4
2017-Dec-09 17:30N 34°33' E 139°10'917.9
2017-Dec-09 17:00N 34°29' E 139°00'917.4
2017-Dec-09 16:30N 34°25' E 138°51'816.6
2017-Dec-09 16:00N 34°22' E 138°41'816.7
2017-Dec-09 15:30N 34°20' E 138°31'916.9
2017-Dec-09 15:00N 34°20' E 138°21'1016.3
2017-Dec-09 14:25N 34°20' E 138°10'716.0
2017-Dec-09 14:00N 34°20' E 138°02'916.5
2017-Dec-09 13:29N 34°21' E 137°51'816.8
2017-Dec-09 13:00N 34°22' E 137°41'816.5
2017-Dec-09 12:30N 34°22' E 137°31'1016.0
2017-Dec-09 11:53N 34°24' E 137°20'1515.2
2017-Dec-09 10:55N 34°30' E 137°04'510.5
2017-Dec-09 10:29N 34°34' E 137°00'613.3
2017-Dec-09 10:00N 34°38' E 136°54'815.7
2017-Dec-09 09:31N 34°43' E 136°48'816.3
2017-Dec-09 09:00N 34°51' E 136°45'714.7
2017-Dec-09 08:30N 34°58' E 136°48'5 9.7
2017-Dec-09 08:00N 35°03' E 136°50'0 0.6
2017-Dec-09 07:28N 35°03' E 136°50'0 0.0
2017-Dec-09 06:58N 35°03' E 136°50'0 0.0
2017-Dec-09 06:28N 35°03' E 136°50'0 0.0
2017-Dec-09 05:58N 35°03' E 136°50'0 0.0
2017-Dec-09 05:19N 35°03' E 136°50'0 0.0
2017-Dec-09 04:58N 35°03' E 136°50'0 0.0
2017-Dec-09 04:28N 35°03' E 136°50'0 0.0
2017-Dec-09 03:58N 35°03' E 136°50'0 0.0
2017-Dec-09 03:28N 35°03' E 136°50'0 0.0
2017-Dec-09 02:58N 35°03' E 136°50'0 0.0
2017-Dec-09 02:28N 35°03' E 136°50'0 0.0
2017-Dec-09 01:58N 35°03' E 136°50'0 0.0
2017-Dec-09 01:28N 35°03' E 136°50'0 0.0
2017-Dec-09 00:55N 35°03' E 136°50'0 0.0
2017-Dec-09 00:28N 35°03' E 136°50'0 0.0
2017-Dec-08 23:58N 35°03' E 136°50'0 0.0
2017-Dec-08 23:28N 35°03' E 136°50'0 0.0
2017-Dec-08 22:58N 35°03' E 136°50'0 0.0
2017-Dec-08 22:28N 35°03' E 136°50'0 0.0
2017-Dec-08 21:58N 35°03' E 136°50'0 0.0
2017-Dec-08 21:28N 35°03' E 136°50'0 0.0
2017-Dec-08 20:58N 35°03' E 136°50'0 0.0
2017-Dec-08 20:25N 35°03' E 136°50'0 0.0
2017-Dec-08 19:58N 35°03' E 136°50'0 0.0
2017-Dec-08 19:28N 35°03' E 136°50'0 0.0
2017-Dec-08 18:58N 35°03' E 136°50'0 0.0
2017-Dec-08 18:28N 35°03' E 136°50'0 0.0
2017-Dec-08 17:58N 35°03' E 136°50'0 0.0
2017-Dec-08 17:28N 35°03' E 136°50'0 0.0
2017-Dec-08 16:55N 35°03' E 136°50'0 0.0
2017-Dec-08 16:28N 35°03' E 136°50'0 0.0
2017-Dec-08 15:55N 35°03' E 136°50'0 0.0
2017-Dec-08 15:25N 35°03' E 136°50'0 0.0
2017-Dec-08 14:58N 35°03' E 136°50'0 0.0
2017-Dec-08 14:25N 35°03' E 136°50'0 0.0
2017-Dec-08 13:55N 35°03' E 136°50'0 0.0
2017-Dec-08 13:28N 35°03' E 136°50'0 0.0
2017-Dec-08 12:58N 35°03' E 136°50'0 0.0
2017-Dec-08 12:28N 35°03' E 136°50'0 0.0
2017-Dec-08 11:58N 35°03' E 136°50'0 0.0
2017-Dec-08 11:28N 35°03' E 136°50'0 0.0
2017-Dec-08 10:58N 35°03' E 136°50'0 0.0
2017-Dec-08 10:28N 35°03' E 136°50'0 0.3
2017-Dec-08 10:00N 35°03' E 136°50'2 3.4
2017-Dec-08 09:30N 35°01' E 136°51'5 9.8
2017-Dec-08 09:00N 34°57' E 136°47'611.4
2017-Dec-08 08:30N 34°51' E 136°47'815.5
2017-Dec-08 08:00N 34°44' E 136°49'816.2
2017-Dec-08 07:30N 34°37' E 136°56'812.7
2017-Dec-08 06:53N 34°32' E 137°03'4 9.2
2017-Dec-08 06:25N 34°30' E 137°07'610.7
2017-Dec-08 05:52N 34°27' E 137°14'1911.2
2017-Dec-08 04:09N 34°22' E 137°36'3 9.7
2017-Dec-08 03:53N 34°22' E 137°39'12 4.9
2017-Dec-08 01:30N 34°17' E 137°52'510.4
2017-Dec-08 01:00N 34°19' E 137°58'510.4
2017-Dec-08 00:29N 34°20' E 138°04'710.9
2017-Dec-07 23:52N 34°22' E 138°12'716.7
2017-Dec-07 23:26N 34°22' E 138°21'817.7
2017-Dec-07 23:01N 34°22' E 138°30'916.0
2017-Dec-07 22:28N 34°24' E 138°40'815.8
2017-Dec-07 21:59N 34°27' E 138°49'715.8
2017-Dec-07 21:30N 34°29' E 138°57'815.6
2017-Dec-07 21:00N 34°32' E 139°06'815.3
2017-Dec-07 20:30N 34°34' E 139°15'714.4
2017-Dec-07 20:00N 34°35' E 139°23'714.3
2017-Dec-07 19:30N 34°36' E 139°32'1014.0
2017-Dec-07 18:46N 34°37' E 139°44'1813.9
2017-Dec-07 17:30N 34°42' E 140°05'813.3
2017-Dec-07 16:57N 34°47' E 140°12'512.5
2017-Dec-07 16:30N 34°49' E 140°18'712.9
2017-Dec-07 15:58N 34°55' E 140°23'612.8
2017-Dec-07 15:30N 34°58' E 140°29'  
Track history (hours):
 
Tides and Currents Weather Stations Pressure Air Temp Water Temp Dewpoint Dewpoint Depression Visibility Wind Speed Wind Dir Waves Ship Positions

Artemis Leader

Last reported at 2017-Dec-09 20:51 UTC. Time now 2017-Dec-18 14:28 UTC.
Position N 34°42' E 140°20'.
Warning: this ship's position is 8 days out of date.

Length 200 m; draft 9.2 m.

Type: Cargo ship. MMSI: 370157000.

Date/timePositionNaut miles runAvg speedWind from/ knotsBaromVisibWave heightAir tempDewpointWater temp
2017-Dec-09 20:51N 34°42' E 140°20'2317.7
2017-Dec-09 19:34N 34°39' E 139°53'216.6
2017-Dec-09 19:28N 34°39' E 139°51'816.7
2017-Dec-09 19:00N 34°38' E 139°42'917.3
2017-Dec-09 18:29N 34°36' E 139°31'1018.2
2017-Dec-09 17:56N 34°36' E 139°19'818.4
2017-Dec-09 17:30N 34°33' E 139°10'917.9
2017-Dec-09 17:00N 34°29' E 139°00'917.4
2017-Dec-09 16:30N 34°25' E 138°51'816.6
2017-Dec-09 16:00N 34°22' E 138°41'816.7
2017-Dec-09 15:30N 34°20' E 138°31'916.9
2017-Dec-09 15:00N 34°20' E 138°21'1016.3
2017-Dec-09 14:25N 34°20' E 138°10'716.0
2017-Dec-09 14:00N 34°20' E 138°02'916.5
2017-Dec-09 13:29N 34°21' E 137°51'816.8
2017-Dec-09 13:00N 34°22' E 137°41'816.5
2017-Dec-09 12:30N 34°22' E 137°31'1016.0
2017-Dec-09 11:53N 34°24' E 137°20'1515.2
2017-Dec-09 10:55N 34°30' E 137°04'510.5
2017-Dec-09 10:29N 34°34' E 137°00'613.3
2017-Dec-09 10:00N 34°38' E 136°54'815.7
2017-Dec-09 09:31N 34°43' E 136°48'816.3
2017-Dec-09 09:00N 34°51' E 136°45'714.7
2017-Dec-09 08:30N 34°58' E 136°48'5 9.7
2017-Dec-09 08:00N 35°03' E 136°50'0 0.6
2017-Dec-09 07:28N 35°03' E 136°50'0 0.0
2017-Dec-09 06:58N 35°03' E 136°50'0 0.0
2017-Dec-09 06:28N 35°03' E 136°50'0 0.0
2017-Dec-09 05:58N 35°03' E 136°50'0 0.0
2017-Dec-09 05:19N 35°03' E 136°50'0 0.0
2017-Dec-09 04:58N 35°03' E 136°50'0 0.0
2017-Dec-09 04:28N 35°03' E 136°50'0 0.0
2017-Dec-09 03:58N 35°03' E 136°50'0 0.0
2017-Dec-09 03:28N 35°03' E 136°50'0 0.0
2017-Dec-09 02:58N 35°03' E 136°50'0 0.0
2017-Dec-09 02:28N 35°03' E 136°50'0 0.0
2017-Dec-09 01:58N 35°03' E 136°50'0 0.0
2017-Dec-09 01:28N 35°03' E 136°50'0 0.0
2017-Dec-09 00:55N 35°03' E 136°50'0 0.0
2017-Dec-09 00:28N 35°03' E 136°50'0 0.0
2017-Dec-08 23:58N 35°03' E 136°50'0 0.0
2017-Dec-08 23:28N 35°03' E 136°50'0 0.0
2017-Dec-08 22:58N 35°03' E 136°50'0 0.0
2017-Dec-08 22:28N 35°03' E 136°50'0 0.0
2017-Dec-08 21:58N 35°03' E 136°50'0 0.0
2017-Dec-08 21:28N 35°03' E 136°50'0 0.0
2017-Dec-08 20:58N 35°03' E 136°50'0 0.0
2017-Dec-08 20:25N 35°03' E 136°50'0 0.0
2017-Dec-08 19:58N 35°03' E 136°50'0 0.0
2017-Dec-08 19:28N 35°03' E 136°50'0 0.0
2017-Dec-08 18:58N 35°03' E 136°50'0 0.0
2017-Dec-08 18:28N 35°03' E 136°50'0 0.0
2017-Dec-08 17:58N 35°03' E 136°50'0 0.0
2017-Dec-08 17:28N 35°03' E 136°50'0 0.0
2017-Dec-08 16:55N 35°03' E 136°50'0 0.0
2017-Dec-08 16:28N 35°03' E 136°50'0 0.0
2017-Dec-08 15:55N 35°03' E 136°50'0 0.0
2017-Dec-08 15:25N 35°03' E 136°50'0 0.0
2017-Dec-08 14:58N 35°03' E 136°50'0 0.0
2017-Dec-08 14:25N 35°03' E 136°50'0 0.0
2017-Dec-08 13:55N 35°03' E 136°50'0 0.0
2017-Dec-08 13:28N 35°03' E 136°50'0 0.0
2017-Dec-08 12:58N 35°03' E 136°50'0 0.0
2017-Dec-08 12:28N 35°03' E 136°50'0 0.0
2017-Dec-08 11:58N 35°03' E 136°50'0 0.0
2017-Dec-08 11:28N 35°03' E 136°50'0 0.0
2017-Dec-08 10:58N 35°03' E 136°50'0 0.0
2017-Dec-08 10:28N 35°03' E 136°50'0 0.3
2017-Dec-08 10:00N 35°03' E 136°50'2 3.4
2017-Dec-08 09:30N 35°01' E 136°51'5 9.8
2017-Dec-08 09:00N 34°57' E 136°47'611.4
2017-Dec-08 08:30N 34°51' E 136°47'815.5
2017-Dec-08 08:00N 34°44' E 136°49'816.2
2017-Dec-08 07:30N 34°37' E 136°56'812.7
2017-Dec-08 06:53N 34°32' E 137°03'4 9.2
2017-Dec-08 06:25N 34°30' E 137°07'610.7
2017-Dec-08 05:52N 34°27' E 137°14'1911.2
2017-Dec-08 04:09N 34°22' E 137°36'3 9.7
2017-Dec-08 03:53N 34°22' E 137°39'12 4.9
2017-Dec-08 01:30N 34°17' E 137°52'510.4
2017-Dec-08 01:00N 34°19' E 137°58'510.4
2017-Dec-08 00:29N 34°20' E 138°04'710.9
2017-Dec-07 23:52N 34°22' E 138°12'716.7
2017-Dec-07 23:26N 34°22' E 138°21'817.7
2017-Dec-07 23:01N 34°22' E 138°30'916.0
2017-Dec-07 22:28N 34°24' E 138°40'815.8
2017-Dec-07 21:59N 34°27' E 138°49'715.8
2017-Dec-07 21:30N 34°29' E 138°57'815.6
2017-Dec-07 21:00N 34°32' E 139°06'815.3
2017-Dec-07 20:30N 34°34' E 139°15'714.4
2017-Dec-07 20:00N 34°35' E 139°23'714.3
2017-Dec-07 19:30N 34°36' E 139°32'1014.0
2017-Dec-07 18:46N 34°37' E 139°44'1813.9
2017-Dec-07 17:30N 34°42' E 140°05'813.3
2017-Dec-07 16:57N 34°47' E 140°12'512.5
2017-Dec-07 16:30N 34°49' E 140°18'712.9
2017-Dec-07 15:58N 34°55' E 140°23'612.8
2017-Dec-07 15:30N 34°58' E 140°29'  

Dump ship's entire track history